Time;durP1;ratioP1;P1;durP2;ratioP2;P2;SDS_P1;SDS_P2;PMS_P1;PMS_P2;Temp;Humidity;BMP_temperature;BMP_pressure;BME280_temperature;BME280_humidity;BME280_pressure;Samples;Min_cycle;Max_cycle;Signal;HPM_P1;HPM_P2
2022/09/29 00:00:12;;;;;;;2.33;1.43;;;;;;;8.87;88.16;99065.19;5075603;28;20205;-78
2022/09/29 00:02:39;;;;;;;1.63;1.53;;;;;;;8.86;88.12;99057.44;5075790;28;20228;-78
2022/09/29 00:05:06;;;;;;;1.70;1.60;;;;;;;8.78;88.60;99073.34;5075294;28;20228;-78
2022/09/29 00:07:33;;;;;;;2.70;1.50;;;;;;;8.77;88.26;99071.63;5069255;28;20217;-78
2022/09/29 00:10:00;;;;;;;1.43;1.33;;;;;;;8.71;89.25;99054.47;5075671;28;20197;-78
2022/09/29 00:12:27;;;;;;;1.33;1.23;;;;;;;8.65;88.73;99054.66;5075582;28;20579;-78
2022/09/29 00:14:53;;;;;;;2.50;1.77;;;;;;;8.66;88.81;99050.31;5074977;28;20233;-78
2022/09/29 00:17:21;;;;;;;1.57;1.47;;;;;;;8.62;89.10;99046.09;5075133;28;20205;-78
2022/09/29 00:19:48;;;;;;;2.03;1.80;;;;;;;8.58;89.28;99047.13;5074886;28;20209;-78
2022/09/29 00:22:14;;;;;;;4.07;1.77;;;;;;;8.55;88.72;99050.69;5075391;28;20566;-78
2022/09/29 00:24:41;;;;;;;2.60;1.77;;;;;;;8.48;89.03;99056.97;5075114;28;20225;-78
2022/09/29 00:27:07;;;;;;;2.70;1.67;;;;;;;8.47;88.88;99055.28;5075322;28;20224;-78
2022/09/29 00:29:34;;;;;;;4.00;1.90;;;;;;;8.46;89.21;99059.63;5075221;28;20271;-78
2022/09/29 00:32:01;;;;;;;2.17;2.07;;;;;;;8.45;89.00;99049.28;5075561;28;20209;-78
2022/09/29 00:34:28;;;;;;;2.87;2.60;;;;;;;8.43;89.22;99053.69;5074272;28;20229;-78
2022/09/29 00:36:55;;;;;;;4.60;2.00;;;;;;;8.44;89.40;99047.56;5071665;28;20682;-78
2022/09/29 00:39:22;;;;;;;2.37;2.17;;;;;;;8.41;89.12;99042.44;5071357;28;20205;-78
2022/09/29 00:41:48;;;;;;;1.97;1.87;;;;;;;8.40;88.95;99036.38;5074595;28;20212;-77
2022/09/29 00:45:03;;;;;;;3.43;2.30;;;;;;;8.38;89.25;99029.53;5075028;28;20201;-78
2022/09/29 00:47:32;;;;;;;3.03;2.60;;;;;;;8.40;89.22;99025.97;5012770;28;20211;-78
2022/09/29 00:50:09;;;;;;;2.60;2.40;;;;;;;8.39;89.46;99032.09;5060556;28;20216;-78
2022/09/29 00:52:40;;;;;;;2.00;1.90;;;;;;;8.35;88.94;99026.13;5074452;28;20204;-77
2022/09/29 00:55:10;;;;;;;2.70;2.50;;;;;;;8.33;90.02;99011.50;5074284;28;20682;-78
2022/09/29 00:57:42;;;;;;;3.10;2.80;;;;;;;8.29;89.93;99004.69;5075192;28;20208;-78
2022/09/29 01:00:11;;;;;;;3.67;2.40;;;;;;;8.22;90.13;99008.38;5074511;28;20201;-78
2022/09/29 01:02:40;;;;;;;3.47;2.60;;;;;;;8.22;90.15;98998.84;5074701;28;20211;-78
2022/09/29 01:05:15;;;;;;;3.50;2.70;;;;;;;8.22;90.12;98998.00;5074359;28;20224;-77
2022/09/29 01:07:44;;;;;;;4.37;3.97;;;;;;;8.18;90.35;98996.41;5067830;28;20208;-78
2022/09/29 01:10:13;;;;;;;6.03;3.37;;;;;;;8.20;89.99;98994.59;5074502;28;20200;-78
2022/09/29 01:12:40;;;;;;;4.40;4.10;;;;;;;8.19;90.70;98996.34;5074924;28;20684;-78
2022/09/29 01:15:08;;;;;;;4.70;4.30;;;;;;;8.15;90.68;99000.78;5073973;28;20236;-78
2022/09/29 01:17:35;;;;;;;5.90;4.03;;;;;;;8.13;90.23;98996.56;5074442;28;20204;-78
2022/09/29 01:20:12;;;;;;;5.07;4.10;;;;;;;8.12;90.59;99005.22;5074674;28;20205;-78
2022/09/29 01:23:26;;;;;;;4.90;4.40;;;;;;;8.14;90.34;98990.44;5074429;28;20208;-78
2022/09/29 01:26:14;;;;;;;4.70;4.30;;;;;;;8.08;90.78;98995.84;5011678;28;20227;-77
2022/09/29 01:29:07;;;;;;;4.97;4.57;;;;;;;8.07;90.63;98987.19;5068410;28;20213;-78
2022/09/29 01:31:45;;;;;;;4.33;3.93;;;;;;;8.03;90.88;98993.41;5074057;28;20581;-78
2022/09/29 01:34:21;;;;;;;6.50;5.90;;;;;;;8.06;90.90;99000.25;5073896;28;20695;-78
2022/09/29 01:36:54;;;;;;;6.47;5.90;;;;;;;8.08;90.72;98990.63;5072486;28;20212;-77
2022/09/29 01:39:29;;;;;;;7.13;5.80;;;;;;;8.05;90.88;99003.75;5070056;28;20208;-78
2022/09/29 01:41:59;;;;;;;6.00;5.50;;;;;;;8.05;90.34;99007.19;5054638;28;20205;-78
2022/09/29 01:44:31;;;;;;;6.13;5.63;;;;;;;7.96;90.39;99015.25;5053987;28;20201;-78
2022/09/29 01:47:03;;;;;;;7.40;5.60;;;;;;;7.93;90.69;98998.03;5054281;28;20220;-78
2022/09/29 01:49:32;;;;;;;7.10;6.50;;;;;;;7.98;91.39;98992.69;5053983;28;20223;-78
2022/09/29 01:52:03;;;;;;;7.87;6.17;;;;;;;7.96;91.37;98994.47;5054474;28;20205;-78
2022/09/29 01:54:33;;;;;;;6.73;6.23;;;;;;;7.95;90.68;98987.59;5053320;28;20236;-78
2022/09/29 01:57:06;;;;;;;7.30;6.60;;;;;;;7.96;90.71;98997.91;5066930;28;20201;-78
2022/09/29 01:59:37;;;;;;;7.43;6.83;;;;;;;7.93;91.38;98998.03;5074361;28;20240;-78
2022/09/29 02:02:09;;;;;;;9.43;7.20;;;;;;;7.92;90.84;98991.13;5073876;28;20295;-78
2022/09/29 02:04:40;;;;;;;7.00;6.40;;;;;;;7.94;91.26;98994.53;5073505;28;20228;-78
2022/09/29 02:07:13;;;;;;;6.90;6.33;;;;;;;7.94;90.86;98998.88;5074058;28;20204;-78
2022/09/29 02:09:46;;;;;;;7.10;6.40;;;;;;;7.95;91.14;99001.44;5074090;28;20189;-78
2022/09/29 02:12:16;;;;;;;7.10;6.50;;;;;;;7.93;90.99;99005.00;5075758;28;20208;-77
2022/09/29 02:14:47;;;;;;;7.10;6.40;;;;;;;7.89;91.02;98999.03;5077867;28;20267;-78
2022/09/29 02:17:19;;;;;;;8.17;7.47;;;;;;;7.89;90.71;99004.22;5078130;28;20204;-78
2022/09/29 02:19:48;;;;;;;9.07;7.90;;;;;;;7.83;91.58;98993.16;5077667;28;20271;-77
2022/09/29 02:22:15;;;;;;;8.13;7.40;;;;;;;7.79;91.75;98992.44;5077703;28;20200;-78
2022/09/29 02:24:42;;;;;;;8.87;8.17;;;;;;;7.82;92.22;98974.13;5075264;28;20221;-78
2022/09/29 02:27:09;;;;;;;7.87;7.27;;;;;;;7.82;92.29;98968.94;5072354;28;20721;-78
2022/09/29 02:29:37;;;;;;;11.43;8.43;;;;;;;7.81;91.55;98971.56;5077409;28;20223;-77
2022/09/29 02:32:07;;;;;;;8.67;7.80;;;;;;;7.78;92.56;98969.09;5077159;28;20205;-78
2022/09/29 02:34:40;;;;;;;9.70;8.80;;;;;;;7.81;92.06;98961.19;5076739;28;20236;-77
2022/09/29 02:37:21;;;;;;;11.40;10.30;;;;;;;7.84;92.64;98963.69;5077475;28;20204;-77
2022/09/29 02:39:56;;;;;;;10.47;9.57;;;;;;;7.85;92.55;98963.66;5077377;28;20224;-78
2022/09/29 02:42:31;;;;;;;9.90;9.00;;;;;;;7.82;92.50;98961.13;5077340;28;20231;-78
2022/09/29 02:45:15;;;;;;;10.97;9.93;;;;;;;7.81;92.49;98956.00;5076399;28;20713;-78
2022/09/29 02:47:58;;;;;;;9.43;8.60;;;;;;;7.83;92.89;98955.06;5077354;28;20204;-78
2022/09/29 02:50:46;;;;;;;10.90;9.80;;;;;;;7.82;92.55;98948.16;5077059;28;20201;-78
2022/09/29 02:53:22;;;;;;;10.33;9.43;;;;;;;7.82;93.54;98942.97;5077474;28;20209;-78
2022/09/29 02:55:57;;;;;;;13.57;12.17;;;;;;;7.80;93.37;98936.13;5068614;28;20717;-78
2022/09/29 02:58:29;;;;;;;14.23;12.97;;;;;;;7.78;94.52;98917.97;5076934;28;20200;-77
2022/09/29 03:00:57;;;;;;;13.07;11.83;;;;;;;7.81;94.77;98901.44;5077415;28;20231;-77
2022/09/29 03:03:24;;;;;;;13.47;12.17;;;;;;;7.86;94.79;98899.56;5077439;28;20213;-78
2022/09/29 03:05:52;;;;;;;12.97;11.83;;;;;;;7.89;95.50;98895.09;5076870;28;20216;-77
2022/09/29 03:08:19;;;;;;;13.53;12.23;;;;;;;7.91;94.76;98889.88;5077228;28;20220;-77
2022/09/29 03:10:45;;;;;;;15.53;14.10;;;;;;;7.86;95.21;98882.22;5077152;28;20212;-78
2022/09/29 03:13:12;;;;;;;15.63;14.03;;;;;;;7.91;96.14;98879.47;5076911;28;20204;-77
2022/09/29 03:15:38;;;;;;;16.60;15.00;;;;;;;7.94;96.45;98869.81;5076689;28;20752;-78
2022/09/29 03:18:06;;;;;;;16.13;14.47;;;;;;;7.99;96.61;98869.69;5076922;28;20698;-78
2022/09/29 03:20:33;;;;;;;16.17;14.87;;;;;;;8.03;95.92;98879.06;5076847;28;20269;-78
2022/09/29 03:23:01;;;;;;;18.00;14.53;;;;;;;8.06;95.71;98902.31;5076464;28;20615;-77
2022/09/29 03:25:27;;;;;;;15.00;13.23;;;;;;;8.07;95.23;98903.19;5069043;28;20237;-77
2022/09/29 03:27:54;;;;;;;13.33;12.13;;;;;;;8.11;95.38;98910.00;5077113;28;20193;-78
2022/09/29 03:30:22;;;;;;;14.83;11.63;;;;;;;8.03;94.59;98918.03;5077284;28;20284;-78
2022/09/29 03:32:49;;;;;;;12.70;11.60;;;;;;;8.01;95.08;98918.97;5077436;28;20209;-78
2022/09/29 03:35:15;;;;;;;13.50;12.30;;;;;;;8.03;94.84;98932.78;5084922;28;20236;-77
2022/09/29 03:37:42;;;;;;;12.97;11.87;;;;;;;8.00;94.55;98935.47;5088518;28;20205;-77
2022/09/29 03:40:11;;;;;;;12.77;11.67;;;;;;;8.01;94.93;98942.34;5088204;28;20209;-77
2022/09/29 03:42:37;;;;;;;12.07;10.93;;;;;;;7.96;94.11;98948.56;5088409;28;20204;-77
2022/09/29 03:45:05;;;;;;;14.23;12.93;;;;;;;7.93;93.85;98955.63;5085464;28;20225;-76
2022/09/29 03:47:31;;;;;;;12.83;11.63;;;;;;;7.92;93.97;98959.94;5087129;28;20204;-78
2022/09/29 03:49:58;;;;;;;11.03;10.03;;;;;;;7.94;93.97;98962.50;5079436;28;20620;-79
2022/09/29 03:52:24;;;;;;;13.30;12.10;;;;;;;7.92;94.26;98970.34;5079191;28;20207;-78
2022/09/29 03:54:51;;;;;;;16.30;12.97;;;;;;;7.93;94.06;98974.66;5074706;28;20233;-78
2022/09/29 03:57:19;;;;;;;13.53;12.33;;;;;;;7.91;93.91;98975.59;5074953;28;20578;-79
2022/09/29 03:59:46;;;;;;;13.63;12.43;;;;;;;7.92;93.84;98980.72;5077713;28;20213;-76
2022/09/29 04:02:13;;;;;;;12.73;11.53;;;;;;;7.90;93.94;98982.53;5074744;28;20205;-77
2022/09/29 04:04:40;;;;;;;13.23;12.10;;;;;;;7.84;93.73;98990.50;5073997;28;20649;-76
2022/09/29 04:07:06;;;;;;;14.73;13.43;;;;;;;7.83;94.29;98983.63;5073713;28;20255;-78
2022/09/29 04:09:33;;;;;;;16.83;15.23;;;;;;;7.79;95.42;98966.44;5077449;28;20212;-78
2022/09/29 04:11:59;;;;;;;15.37;14.00;;;;;;;7.86;95.61;98965.34;5077200;28;20212;-78
2022/09/29 04:14:27;;;;;;;14.17;12.87;;;;;;;7.88;95.33;98957.50;5077254;28;20212;-78
2022/09/29 04:16:53;;;;;;;14.63;13.23;;;;;;;7.91;95.29;98960.03;5077174;28;20208;-79
2022/09/29 04:19:20;;;;;;;15.77;13.63;;;;;;;7.95;95.09;98966.81;5075721;28;20574;-76
2022/09/29 04:21:46;;;;;;;14.77;13.47;;;;;;;7.98;94.73;98984.88;5073481;28;20205;-78
2022/09/29 04:24:13;;;;;;;15.83;14.53;;;;;;;8.00;94.25;98979.66;5077077;28;20263;-79
2022/09/29 04:26:40;;;;;;;14.50;13.03;;;;;;;8.01;94.77;98990.00;5071555;28;20204;-78
2022/09/29 04:29:07;;;;;;;14.60;13.27;;;;;;;7.98;94.68;98979.69;5079628;28;20582;-78
2022/09/29 04:31:35;;;;;;;14.13;12.90;;;;;;;7.99;95.38;98988.31;5077016;28;20690;-78
2022/09/29 04:34:01;;;;;;;13.60;12.43;;;;;;;8.01;95.02;98977.00;5076823;28;20219;-78
2022/09/29 04:36:28;;;;;;;13.07;11.83;;;;;;;7.99;94.96;98990.94;5076354;28;20231;-78
2022/09/29 04:38:54;;;;;;;13.80;12.60;;;;;;;7.99;94.60;98998.72;5077546;28;20212;-78
2022/09/29 04:41:21;;;;;;;14.37;13.07;;;;;;;8.00;95.20;98992.63;5076740;28;20246;-79
2022/09/29 04:43:47;;;;;;;13.63;12.33;;;;;;;8.03;94.35;99003.78;5077013;28;20208;-79
2022/09/29 04:46:15;;;;;;;13.60;12.40;;;;;;;8.01;94.64;98996.91;5076280;28;20233;-78
2022/09/29 04:48:43;;;;;;;13.37;12.07;;;;;;;7.97;94.96;99001.38;5076937;28;20208;-79
2022/09/29 04:51:10;;;;;;;14.13;12.47;;;;;;;7.99;95.13;98991.78;5074244;28;20238;-76
2022/09/29 04:53:36;;;;;;;13.97;12.67;;;;;;;7.99;94.83;98997.00;5073056;28;20216;-76
2022/09/29 04:56:07;;;;;;;12.77;11.70;;;;;;;8.03;95.10;99001.19;5064683;28;20324;-76
2022/09/29 04:58:34;;;;;;;14.23;12.80;;;;;;;8.03;94.36;99002.94;5072831;28;20204;-76
2022/09/29 05:01:08;;;;;;;13.37;12.27;;;;;;;8.02;94.67;99020.28;5072684;28;20208;-76
2022/09/29 05:03:35;;;;;;;13.00;11.73;;;;;;;8.01;94.42;99026.38;5072649;28;20238;-76
2022/09/29 05:06:03;;;;;;;12.90;11.73;;;;;;;7.99;93.81;99028.19;5072444;28;20235;-76
2022/09/29 05:08:29;;;;;;;16.00;12.53;;;;;;;7.97;93.50;99040.38;5073099;28;20224;-76
2022/09/29 05:10:56;;;;;;;13.17;11.80;;;;;;;7.93;94.03;99050.00;5072531;28;20207;-76
2022/09/29 05:13:23;;;;;;;13.83;12.33;;;;;;;7.90;93.41;99052.66;5072709;28;20215;-76
2022/09/29 05:15:49;;;;;;;13.97;12.70;;;;;;;7.91;93.59;99050.94;5072199;28;20331;-76
2022/09/29 05:18:16;;;;;;;13.23;12.10;;;;;;;7.83;93.50;99058.09;5072959;28;20247;-79
2022/09/29 05:20:42;;;;;;;13.10;12.00;;;;;;;7.83;92.98;99064.16;5076387;28;20208;-78
2022/09/29 05:23:10;;;;;;;13.87;12.73;;;;;;;7.82;92.76;99072.00;5076278;28;20687;-78
2022/09/29 05:25:37;;;;;;;15.60;11.90;;;;;;;7.80;92.68;99084.19;5067925;28;20225;-78
2022/09/29 05:28:04;;;;;;;12.50;11.40;;;;;;;7.81;92.63;99085.88;5076448;28;20200;-78
2022/09/29 05:30:30;;;;;;;12.17;11.07;;;;;;;7.79;93.25;99088.53;5075991;28;20219;-78
2022/09/29 05:32:57;;;;;;;13.03;11.73;;;;;;;7.76;93.07;99089.44;5076041;28;20208;-78
2022/09/29 05:35:23;;;;;;;13.27;11.73;;;;;;;7.66;93.89;99075.03;5075904;28;20235;-78
2022/09/29 05:37:50;;;;;;;12.37;11.27;;;;;;;7.69;93.03;99068.91;5077071;28;20588;-78
2022/09/29 05:40:19;;;;;;;12.60;11.40;;;;;;;7.66;92.87;99074.19;5076997;28;20208;-78
2022/09/29 05:42:46;;;;;;;12.47;11.27;;;;;;;7.68;92.70;99082.78;5075999;28;20759;-79
2022/09/29 05:45:12;;;;;;;12.03;11.03;;;;;;;7.68;92.80;99103.56;5075528;28;20225;-78
2022/09/29 05:47:41;;;;;;;13.10;11.47;;;;;;;7.65;91.97;99111.44;5080563;28;20216;-78
2022/09/29 05:50:08;;;;;;;14.67;13.37;;;;;;;7.67;92.00;99120.91;5080333;28;20212;-78
2022/09/29 05:52:35;;;;;;;14.47;12.97;;;;;;;7.64;91.90;99135.72;5080090;28;20211;-78
2022/09/29 05:55:01;;;;;;;12.80;11.50;;;;;;;7.65;91.64;99137.41;5074898;28;20617;-78
2022/09/29 05:57:30;;;;;;;15.00;13.40;;;;;;;7.63;91.74;99141.78;5072278;28;20196;-78
2022/09/29 05:59:57;;;;;;;14.37;13.03;;;;;;;7.61;90.99;99154.84;5078275;28;20669;-78
2022/09/29 06:02:23;;;;;;;14.43;12.67;;;;;;;7.61;91.38;99149.66;5076828;28;20205;-78
2022/09/29 06:04:50;;;;;;;15.07;13.10;;;;;;;7.54;91.45;99151.53;5070675;28;20247;-78
2022/09/29 06:07:16;;;;;;;13.67;12.53;;;;;;;7.51;91.84;99149.03;5068658;28;20235;-78
2022/09/29 06:09:43;;;;;;;15.00;13.60;;;;;;;7.52;91.34;99136.91;5077680;28;20686;-78
2022/09/29 06:12:09;;;;;;;14.57;13.17;;;;;;;7.53;91.90;99130.81;5079015;28;20212;-78
2022/09/29 06:14:37;;;;;;;13.70;12.37;;;;;;;7.55;92.53;99116.91;5078355;28;20224;-78
2022/09/29 06:17:04;;;;;;;14.67;13.37;;;;;;;7.52;92.30;99116.13;5074875;28;20228;-76
2022/09/29 06:19:30;;;;;;;14.57;13.27;;;;;;;7.55;92.36;99105.66;5074818;28;20216;-76
2022/09/29 06:21:57;;;;;;;14.33;13.03;;;;;;;7.54;93.15;99102.22;5075277;28;20208;-76
2022/09/29 06:24:23;;;;;;;14.67;13.27;;;;;;;7.59;93.20;99090.84;5076605;28;20205;-79
2022/09/29 06:26:49;;;;;;;12.70;11.60;;;;;;;7.56;93.08;99081.41;5072026;28;20201;-79
2022/09/29 06:29:16;;;;;;;13.53;12.13;;;;;;;7.46;94.49;99065.22;5079736;28;20213;-79
2022/09/29 06:31:44;;;;;;;16.13;14.47;;;;;;;6.90;95.44;99029.56;5078452;28;20212;-77
2022/09/29 06:34:10;;;;;;;15.67;14.17;;;;;;;6.66;98.31;98976.63;5064982;28;20204;-77
2022/09/29 06:39:25;;;;;;;18.47;16.67;;;;;;;6.19;100.00;98879.41;5068255;28;20205;-78
2022/09/29 06:41:53;;;;;;;22.87;17.37;;;;;;;6.20;100.00;98857.75;5062139;28;20201;-78
2022/09/29 06:44:21;;;;;;;18.17;16.27;;;;;;;6.15;100.00;98855.31;5059805;28;20287;-78
2022/09/29 06:46:50;;;;;;;21.40;17.57;;;;;;;6.07;100.00;98852.91;5060829;28;20212;-78
2022/09/29 06:49:17;;;;;;;18.97;17.07;;;;;;;6.08;100.00;98851.16;5058514;28;20205;-78
2022/09/29 06:51:44;;;;;;;17.00;15.23;;;;;;;6.17;100.00;98853.53;5058799;28;20209;-78
2022/09/29 06:54:10;;;;;;;23.70;16.50;;;;;;;6.34;100.00;98858.22;5057792;28;20211;-79
2022/09/29 06:56:37;;;;;;;21.80;17.40;;;;;;;6.46;100.00;98867.41;5066966;28;20732;-79
2022/09/29 06:59:04;;;;;;;19.03;17.00;;;;;;;6.66;100.00;98875.50;5077386;28;20200;-79
2022/09/29 07:01:30;;;;;;;21.40;16.87;;;;;;;6.70;100.00;98892.69;5077154;28;20209;-80
2022/09/29 07:03:59;;;;;;;19.43;17.53;;;;;;;6.65;100.00;98893.69;5077059;28;20231;-80
2022/09/29 07:06:26;;;;;;;25.20;18.93;;;;;;;6.73;100.00;98892.56;5076912;28;20225;-81
2022/09/29 07:08:54;;;;;;;23.60;18.90;;;;;;;6.75;100.00;98898.56;5079014;28;20233;-81
2022/09/29 07:11:21;;;;;;;24.63;18.37;;;;;;;6.83;100.00;98887.97;5078706;28;20212;-79
2022/09/29 07:13:48;;;;;;;25.20;18.87;;;;;;;6.88;100.00;98893.91;5079066;28;20209;-79
2022/09/29 07:16:14;;;;;;;27.33;19.40;;;;;;;6.98;100.00;98897.06;5078383;28;20232;-79
2022/09/29 07:18:42;;;;;;;24.27;18.67;;;;;;;7.14;100.00;98903.50;5076721;28;20209;-82
2022/09/29 07:21:12;;;;;;;26.80;19.20;;;;;;;7.33;100.00;98926.28;5077213;28;20207;-82
2022/09/29 07:23:40;;;;;;;26.43;18.83;;;;;;;7.47;100.00;98926.75;5077785;28;20215;-79
2022/09/29 07:26:06;;;;;;;21.70;18.07;;;;;;;7.56;100.00;98951.56;5071510;28;20252;-79
2022/09/29 07:28:34;;;;;;;20.13;18.00;;;;;;;7.64;100.00;98961.72;5079521;28;20189;-79
2022/09/29 07:31:02;;;;;;;20.37;18.27;;;;;;;7.81;100.00;98969.84;5078686;28;20200;-79
2022/09/29 07:33:30;;;;;;;23.23;17.47;;;;;;;8.07;100.00;98958.63;5071599;28;20205;-79
2022/09/29 07:35:58;;;;;;;19.97;18.07;;;;;;;8.05;100.00;98980.38;5070677;28;20221;-79
2022/09/29 07:38:26;;;;;;;19.23;17.40;;;;;;;7.95;100.00;99021.38;5071747;28;20196;-79
2022/09/29 07:40:53;;;;;;;19.43;17.63;;;;;;;7.92;100.00;99044.84;5082058;28;20200;-80
2022/09/29 07:43:19;;;;;;;20.10;18.10;;;;;;;8.05;100.00;99051.38;5074133;28;20203;-80
2022/09/29 07:45:48;;;;;;;19.03;16.70;;;;;;;8.08;100.00;99037.41;5069882;28;20245;-79
2022/09/29 07:48:15;;;;;;;19.30;17.30;;;;;;;8.24;100.00;99045.59;5072804;28;20224;-79
2022/09/29 07:50:41;;;;;;;20.43;17.17;;;;;;;8.32;100.00;99047.06;5080530;28;20211;-80
2022/09/29 07:53:09;;;;;;;18.70;16.90;;;;;;;8.31;100.00;99058.34;5080886;28;20205;-80
2022/09/29 07:55:37;;;;;;;17.07;15.37;;;;;;;8.34;100.00;99062.56;5070208;28;20240;-79
2022/09/29 07:58:04;;;;;;;17.30;15.67;;;;;;;8.46;100.00;99076.97;5079406;28;20681;-79
2022/09/29 08:00:31;;;;;;;17.83;16.03;;;;;;;8.54;100.00;99082.78;5081005;28;20215;-79
2022/09/29 08:03:01;;;;;;;18.23;16.47;;;;;;;8.57;99.71;99100.03;5080316;28;20197;-80
2022/09/29 08:05:27;;;;;;;15.83;14.43;;;;;;;8.67;99.09;99119.66;5078782;28;20236;-80
2022/09/29 08:07:54;;;;;;;17.50;15.80;;;;;;;8.74;99.53;99122.00;5081727;28;20230;-80
2022/09/29 08:10:21;;;;;;;15.83;14.37;;;;;;;8.85;98.58;99139.00;5078269;28;20213;-79
2022/09/29 08:12:49;;;;;;;14.37;12.97;;;;;;;8.99;98.40;99155.00;5076388;28;20227;-80
2022/09/29 08:15:16;;;;;;;15.50;14.10;;;;;;;9.11;97.56;99158.97;5076311;28;20603;-79
2022/09/29 08:17:42;;;;;;;14.27;13.00;;;;;;;9.13;95.32;99198.81;5076679;28;20217;-80
2022/09/29 08:20:09;;;;;;;14.10;12.90;;;;;;;9.12;93.54;99249.19;5078665;28;20228;-79
2022/09/29 08:22:36;;;;;;;14.07;12.90;;;;;;;9.13;93.12;99282.13;5078569;28;20219;-79
2022/09/29 08:25:02;;;;;;;12.70;11.50;;;;;;;9.07;92.08;99301.38;5072466;28;20233;-79
2022/09/29 08:27:29;;;;;;;13.50;12.30;;;;;;;9.16;92.29;99326.28;5074571;28;20194;-79
2022/09/29 08:29:57;;;;;;;13.70;12.50;;;;;;;9.31;92.05;99331.00;5077374;28;20223;-79
2022/09/29 08:32:24;;;;;;;14.30;13.13;;;;;;;9.38;91.76;99336.88;5079437;28;20208;-79
2022/09/29 08:34:50;;;;;;;13.33;12.23;;;;;;;9.54;91.58;99345.91;5079072;28;20225;-79
2022/09/29 08:37:17;;;;;;;12.27;10.80;;;;;;;9.60;90.38;99364.84;5076691;28;20221;-79
2022/09/29 08:39:44;;;;;;;13.03;11.80;;;;;;;9.73;91.43;99363.53;5077369;28;20231;-80
2022/09/29 08:42:21;;;;;;;13.13;11.93;;;;;;;9.71;90.33;99376.63;5077179;28;20208;-79
2022/09/29 08:44:54;;;;;;;12.00;11.00;;;;;;;9.77;89.82;99387.75;5081596;28;20229;-80
2022/09/29 08:47:28;;;;;;;13.13;11.97;;;;;;;9.84;89.92;99391.84;5082804;28;20205;-78
2022/09/29 08:49:59;;;;;;;11.10;10.20;;;;;;;9.79;88.40;99410.25;5079951;28;20203;-80
2022/09/29 08:52:30;;;;;;;11.67;10.77;;;;;;;9.85;88.73;99425.69;5078797;28;20209;-79
2022/09/29 08:55:05;;;;;;;13.17;12.17;;;;;;;9.78;88.63;99425.94;5072355;28;20282;-79
2022/09/29 08:57:33;;;;;;;12.27;11.37;;;;;;;9.79;89.00;99419.81;5077006;28;20258;-79
2022/09/29 09:00:00;;;;;;;12.80;11.60;;;;;;;9.88;89.27;99404.72;5080340;28;20300;-79
2022/09/29 09:02:54;;;;;;;13.43;12.33;;;;;;;10.04;90.17;99386.81;5079794;28;20215;-80
2022/09/29 09:05:47;;;;;;;12.70;11.60;;;;;;;10.04;88.03;99425.94;5079564;28;20220;-80
2022/09/29 09:08:27;;;;;;;13.40;12.33;;;;;;;10.09;87.72;99439.69;5080177;28;20630;-79
2022/09/29 09:11:05;;;;;;;14.10;12.90;;;;;;;10.22;87.23;99444.47;5078717;28;20213;-80
2022/09/29 09:13:49;;;;;;;14.13;13.03;;;;;;;10.13;86.25;99477.78;5078349;28;20208;-77
2022/09/29 09:16:28;;;;;;;13.03;12.03;;;;;;;10.26;86.99;99474.78;5075763;28;20239;-77
2022/09/29 09:19:26;;;;;;;13.30;12.20;;;;;;;10.47;87.85;99453.22;5075573;28;20211;-79
2022/09/29 09:22:00;;;;;;;13.63;12.43;;;;;;;10.53;86.51;99463.44;5076832;28;20207;-79
2022/09/29 09:24:35;;;;;;;12.37;11.37;;;;;;;10.62;86.23;99477.91;5076728;28;20223;-80
2022/09/29 09:27:04;;;;;;;14.33;13.23;;;;;;;10.38;86.34;99487.44;5070813;28;20202;-79
2022/09/29 09:29:36;;;;;;;13.20;12.17;;;;;;;10.46;86.38;99480.19;5075154;28;20240;-80
2022/09/29 09:32:07;;;;;;;14.30;13.20;;;;;;;10.50;87.18;99462.69;5075910;28;20653;-80
2022/09/29 09:34:41;;;;;;;14.90;13.60;;;;;;;10.57;86.96;99453.75;5074595;28;20221;-78
2022/09/29 09:37:13;;;;;;;15.23;13.93;;;;;;;10.49;87.33;99450.56;5075085;28;20704;-77
2022/09/29 09:39:47;;;;;;;14.27;13.07;;;;;;;10.58;88.01;99420.66;5075859;28;20212;-78
2022/09/29 09:42:18;;;;;;;15.37;14.07;;;;;;;10.57;87.59;99426.81;5077170;28;20228;-78
2022/09/29 09:44:49;;;;;;;14.80;13.50;;;;;;;10.67;87.80;99412.53;5076727;28;20237;-79
2022/09/29 09:47:25;;;;;;;14.33;13.13;;;;;;;10.69;86.14;99431.59;5077830;28;20209;-79
2022/09/29 09:49:58;;;;;;;13.87;12.67;;;;;;;10.78;87.52;99427.78;5077069;28;20215;-80
2022/09/29 09:52:31;;;;;;;15.77;14.37;;;;;;;10.67;87.88;99404.69;5076855;28;20227;-79
2022/09/29 09:55:01;;;;;;;15.63;14.33;;;;;;;10.57;87.89;99403.31;5071750;28;20238;-77
2022/09/29 09:57:51;;;;;;;15.13;13.93;;;;;;;10.64;87.83;99415.22;5073405;28;20234;-78
2022/09/29 10:00:23;;;;;;;15.20;13.90;;;;;;;10.68;86.81;99422.91;5076220;28;20252;-80
2022/09/29 10:02:51;;;;;;;15.03;13.83;;;;;;;10.77;86.06;99447.81;5076630;28;20207;-79
2022/09/29 10:05:22;;;;;;;13.57;12.43;;;;;;;10.75;84.42;99477.50;5076164;28;20587;-80
2022/09/29 10:07:50;;;;;;;14.57;13.37;;;;;;;10.67;85.07;99503.88;5076783;28;20205;-79
2022/09/29 10:10:19;;;;;;;14.43;13.17;;;;;;;10.72;85.41;99475.84;5076846;28;20243;-79
2022/09/29 10:12:46;;;;;;;14.10;13.00;;;;;;;10.89;86.49;99452.59;5076541;28;20699;-78
2022/09/29 10:15:20;;;;;;;13.60;12.40;;;;;;;11.11;85.88;99454.44;5076056;28;20603;-78
2022/09/29 10:17:54;;;;;;;13.73;12.63;;;;;;;11.20;84.96;99469.78;5076852;28;20247;-78
2022/09/29 10:20:33;;;;;;;12.70;11.70;;;;;;;11.24;82.58;99527.97;5076525;28;20700;-78
2022/09/29 10:23:19;;;;;;;11.93;10.93;;;;;;;11.31;83.04;99545.97;5076526;28;20206;-77
2022/09/29 10:25:53;;;;;;;10.60;9.87;;;;;;;11.40;81.81;99580.53;5067689;28;20602;-78
2022/09/29 10:28:20;;;;;;;11.00;10.10;;;;;;;11.45;81.37;99597.72;5075274;28;20205;-78
2022/09/29 10:30:46;;;;;;;11.37;10.47;;;;;;;11.48;80.40;99623.75;5075780;28;20210;-78
2022/09/29 10:33:17;;;;;;;12.43;10.43;;;;;;;11.65;80.32;99628.38;5077368;28;20213;-78
2022/09/29 10:35:48;;;;;;;11.67;10.60;;;;;;;11.68;80.57;99630.88;5079259;28;20229;-78
2022/09/29 10:38:23;;;;;;;11.47;10.50;;;;;;;11.52;79.26;99664.56;5078562;28;20632;-77
2022/09/29 10:40:57;;;;;;;11.30;10.40;;;;;;;11.67;77.93;99683.22;5080057;28;20209;-80
2022/09/29 10:43:26;;;;;;;11.00;10.00;;;;;;;11.87;77.86;99699.06;5080524;28;20670;-80
2022/09/29 10:45:57;;;;;;;10.97;10.17;;;;;;;12.02;77.21;99722.97;5079536;28;20217;-79
2022/09/29 10:48:25;;;;;;;10.23;9.43;;;;;;;12.04;77.33;99736.84;5079575;28;20209;-78
2022/09/29 10:50:55;;;;;;;10.27;9.57;;;;;;;12.22;77.31;99743.16;5079626;28;20206;-78
2022/09/29 10:53:28;;;;;;;8.13;7.43;;;;;;;12.36;75.79;99748.75;5079366;28;20238;-78
2022/09/29 10:55:57;;;;;;;7.07;6.37;;;;;;;12.10;75.05;99813.34;5070999;28;20619;-77
2022/09/29 10:58:28;;;;;;;6.30;5.80;;;;;;;11.91;75.32;99823.59;5077935;28;20709;-77
2022/09/29 11:01:06;;;;;;;6.80;6.30;;;;;;;11.81;74.85;99826.53;5078620;28;20544;-80
2022/09/29 11:03:37;;;;;;;5.60;5.20;;;;;;;11.75;73.58;99834.59;5079354;28;20209;-78
2022/09/29 11:06:08;;;;;;;6.97;6.43;;;;;;;11.69;74.66;99836.53;5077905;28;20315;-78
2022/09/29 11:09:00;;;;;;;6.77;6.27;;;;;;;11.86;74.68;99827.25;5078678;28;20216;-78
2022/09/29 11:11:28;;;;;;;6.40;6.00;;;;;;;12.11;73.88;99817.69;5078638;28;20202;-78
2022/09/29 11:13:55;;;;;;;7.20;6.70;;;;;;;12.29;73.21;99854.56;5078436;28;20578;-77
2022/09/29 11:16:27;;;;;;;7.57;6.87;;;;;;;12.26;72.33;99881.69;5075631;28;20260;-77
2022/09/29 11:18:58;;;;;;;7.33;6.83;;;;;;;12.28;71.53;99911.25;5074644;28;20206;-76
2022/09/29 11:21:48;;;;;;;6.50;6.10;;;;;;;12.47;72.71;99901.03;5074624;28;20676;-77
2022/09/29 11:24:24;;;;;;;5.90;5.50;;;;;;;12.67;69.72;99938.72;5075033;28;20209;-77
2022/09/29 11:26:59;;;;;;;5.30;4.90;;;;;;;12.91;69.13;99992.00;5066894;28;20198;-77
2022/09/29 11:29:36;;;;;;;4.70;4.20;;;;;;;13.36;70.22;99979.91;5074994;28;20212;-77
2022/09/29 11:32:22;;;;;;;4.30;4.03;;;;;;;14.69;69.44;99935.13;5075179;28;20207;-78
2022/09/29 11:35:04;;;;;;;4.67;4.37;;;;;;;16.06;60.98;100123.56;5075525;28;20238;-78
2022/09/29 11:37:42;;;;;;;4.30;4.00;;;;;;;17.94;58.01;100250.59;5075552;28;20605;-79
2022/09/29 11:40:12;;;;;;;4.60;4.30;;;;;;;18.86;53.09;100417.53;5074936;28;20205;-78
2022/09/29 11:42:55;;;;;;;4.50;4.20;;;;;;;18.42;51.62;100519.38;5075732;28;20214;-79